This is the latest recevied weather packets stored in our database for station/object DB0LS-15. If no packets are shown the sender has not sent any weather packets the latest 10 day(s).
| Time | Temp. | Humidity | Pressure | Rain* | Wind** | Luminosity | Snow |
|---|---|---|---|---|---|---|---|
| 1777875340 | 15.56° C | 68% | 995 hPa | 0 mm | - | - | - |
| 1777874736 | 15.56° C | 67% | 994.8 hPa | 0 mm | - | - | - |
| 1777874132 | 15.56° C | 68% | 994.9 hPa | 0 mm | - | - | - |
| 1777873559 | 15.56° C | 69% | 994.7 hPa | 0 mm | - | - | - |
| 1777872955 | 15.56° C | 68% | 994.5 hPa | 0 mm | - | - | - |
| 1777872351 | 15.56° C | 67% | 994.6 hPa | 0 mm | - | - | - |
| 1777871747 | 15.56° C | 65% | 994.6 hPa | 0 mm | - | - | - |
| 1777871144 | 15.56° C | 66% | 994.6 hPa | 0 mm | - | - | - |
| 1777870540 | 15.56° C | 64% | 994.3 hPa | 0 mm | - | - | - |
| 1777869936 | 15.56° C | 64% | 994.4 hPa | 0 mm | - | - | - |
| 1777869332 | 15° C | 66% | 994.5 hPa | 0 mm | - | - | - |
| 1777868728 | 15° C | 67% | 994.5 hPa | 0 mm | - | - | - |
| 1777868124 | 15° C | 66% | 994.3 hPa | 0 mm | - | - | - |
| 1777867521 | 15° C | 65% | 994.4 hPa | 0 mm | - | - | - |
| 1777866917 | 15° C | 66% | 994.5 hPa | 0 mm | - | - | - |
| 1777866373 | 15.56° C | 64% | 994.2 hPa | 0 mm | - | - | - |
| 1777865770 | 16.11° C | 60% | 994.1 hPa | 0 mm | - | - | - |
| 1777865166 | 16.11° C | 60% | 994.1 hPa | 0 mm | - | - | - |
| 1777864562 | 16.11° C | 59% | 994.1 hPa | 0 mm | - | - | - |
| 1777863958 | 16.67° C | 59% | 994.2 hPa | 0 mm | - | - | - |
| 1777863349 | 16.67° C | 58% | 994.3 hPa | 0 mm | - | - | - |
| 1777862745 | 16.11° C | 60% | 994.4 hPa | 0 mm | - | - | - |
| 1777862141 | 16.11° C | 61% | 994.5 hPa | 0 mm | - | - | - |
| 1777861538 | 16.11° C | 61% | 994.5 hPa | 0 mm | - | - | - |
| 1777860934 | 16.11° C | 61% | 994.6 hPa | 0 mm | - | - | - |
* Rain latest hour (hover to see other rain measurements)
** Current wind speed in m/s (hover to see current wind gust speed)